GFD weather

Pope Field
Greenfield, Indiana, United States

Public forecast

Using degrees Fahrenheit for public forecast. Weather courtesy of forecast.io.

METAR (pilot weather report)

Closest report is Indianapolis Regional Airport, 8.1 nm (15.0 km) WNW. Retrieved 2019/09/18 00:36 UTC (0 seconds ago):

KMQJ 180036Z AUTO 00000KT 10SM CLR 19/18 A3011 RMK AO1

TAF (pilot weather forecast)

Forecast is more than 12 hours old.

Closest forecast is Indianapolis International Airport, 26.1 nm (48.4 km) W. Retrieved 2019/09/17 00:22 UTC (1 day ago):

TAF KIND 172320Z 1800/1906 06008KT P6SM FEW040 SCT250 FM180500 VRB04KT P6SM FEW250 FM181600 10006KT P6SM FEW050 SCT250